createdAt,value
2023-01-05T00:00:03.004Z,975.93
2023-01-05T00:01:02.882Z,976.01
2023-01-05T00:02:04.020Z,975.98
2023-01-05T00:03:03.801Z,975.98
2023-01-05T00:04:03.767Z,976.04
2023-01-05T00:05:03.687Z,975.93
2023-01-05T00:06:03.719Z,976.07
2023-01-05T00:07:03.651Z,975.95
2023-01-05T00:08:03.771Z,976.04
2023-01-05T00:09:03.848Z,976.10
2023-01-05T00:10:03.784Z,976.13
2023-01-05T00:11:03.732Z,976.04
2023-01-05T00:12:03.821Z,975.95
2023-01-05T00:13:03.714Z,975.98
2023-01-05T00:14:03.791Z,975.93
2023-01-05T00:15:03.799Z,975.98
2023-01-05T00:16:04.006Z,975.96
2023-01-05T00:17:03.737Z,976.13
2023-01-05T00:18:03.127Z,975.90
2023-01-05T00:19:03.070Z,976.07
2023-01-05T00:20:03.055Z,976.01
2023-01-05T00:21:03.123Z,975.90
2023-01-05T00:22:03.201Z,976.01
2023-01-05T00:23:03.053Z,976.01
2023-01-05T00:24:02.989Z,975.98
2023-01-05T00:25:12.772Z,975.79
2023-01-05T00:26:02.924Z,975.93
2023-01-05T00:27:02.922Z,976.04
2023-01-05T00:28:03.091Z,976.04
2023-01-05T00:29:03.076Z,975.87
2023-01-05T00:30:03.150Z,975.84
2023-01-05T00:31:03.039Z,975.87
2023-01-05T00:32:03.177Z,975.84
2023-01-05T00:33:03.190Z,975.93
2023-01-05T00:34:03.103Z,976.07
2023-01-05T00:35:03.179Z,975.90
2023-01-05T00:36:03.038Z,975.87
2023-01-05T00:37:03.008Z,975.87
2023-01-05T00:38:03.048Z,975.95
2023-01-05T00:39:03.042Z,975.93
2023-01-05T00:40:03.129Z,976.21
2023-01-05T00:41:02.953Z,975.95
2023-01-05T00:42:03.864Z,976.12
2023-01-05T00:43:03.952Z,976.01
2023-01-05T00:44:03.804Z,976.04
2023-01-05T00:45:02.892Z,976.12
2023-01-05T00:46:04.012Z,975.98
2023-01-05T00:47:03.023Z,976.06
2023-01-05T00:48:02.928Z,975.83
2023-01-05T00:49:03.899Z,976.06
2023-01-05T00:50:03.823Z,976.06
2023-01-05T00:51:03.886Z,975.89
2023-01-05T00:52:03.798Z,975.95
2023-01-05T00:53:03.749Z,976.09
2023-01-05T00:54:03.677Z,975.91
2023-01-05T00:55:03.552Z,976.11
2023-01-05T00:56:03.637Z,976.06
2023-01-05T00:57:03.669Z,976.17
2023-01-05T00:58:03.571Z,976.14
2023-01-05T00:59:03.638Z,976.11
2023-01-05T01:00:03.637Z,976.14
2023-01-05T01:01:03.973Z,975.97
2023-01-05T01:02:03.895Z,976.16
2023-01-05T01:03:03.596Z,976.11
2023-01-05T01:04:03.567Z,976.08
2023-01-05T01:05:03.493Z,976.19
2023-01-05T01:06:03.436Z,976.13
2023-01-05T01:07:03.424Z,976.13
2023-01-05T01:08:03.358Z,976.07
2023-01-05T01:09:03.354Z,976.19
2023-01-05T01:10:03.769Z,976.07
2023-01-05T01:11:03.518Z,976.04
2023-01-05T01:12:03.416Z,976.21
2023-01-05T01:13:03.388Z,976.10
2023-01-05T01:14:03.365Z,976.27
2023-01-05T01:15:03.415Z,976.18
2023-01-05T01:16:03.305Z,976.24
2023-01-05T01:17:03.575Z,976.16
2023-01-05T01:18:03.424Z,976.21
2023-01-05T01:19:05.926Z,976.13
2023-01-05T01:20:03.309Z,976.24
2023-01-05T01:21:03.374Z,976.13
2023-01-05T01:22:03.249Z,976.10
2023-01-05T01:23:03.242Z,976.01
2023-01-05T01:24:03.212Z,976.13
2023-01-05T01:25:03.058Z,976.04
2023-01-05T01:26:03.063Z,976.07
2023-01-05T01:27:03.094Z,975.93
2023-01-05T01:28:03.237Z,975.93
2023-01-05T01:29:03.093Z,976.04
2023-01-05T01:30:03.046Z,976.07
2023-01-05T01:31:03.296Z,976.04
2023-01-05T01:32:03.082Z,975.99
2023-01-05T01:33:02.964Z,975.96
2023-01-05T01:34:02.909Z,975.93
2023-01-05T01:35:02.953Z,976.19
2023-01-05T01:36:02.979Z,975.99
2023-01-05T01:37:03.011Z,975.90
2023-01-05T01:38:02.850Z,975.96
2023-01-05T01:39:02.917Z,976.02
2023-01-05T01:40:03.068Z,975.99
2023-01-05T01:41:03.006Z,976.02
2023-01-05T01:42:03.096Z,976.10
2023-01-05T01:43:02.949Z,975.93
2023-01-05T01:44:03.863Z,975.96
2023-01-05T01:45:03.876Z,976.07
2023-01-05T01:46:03.886Z,976.25
2023-01-05T01:47:03.801Z,976.13
2023-01-05T01:48:03.655Z,976.05
2023-01-05T01:49:03.690Z,976.19
2023-01-05T01:50:03.027Z,976.13
2023-01-05T01:51:08.580Z,976.19
2023-01-05T01:52:02.938Z,975.99
2023-01-05T01:53:02.970Z,976.07
2023-01-05T01:54:03.937Z,976.30
2023-01-05T01:55:03.840Z,976.19
2023-01-05T01:56:03.807Z,976.27
2023-01-05T01:57:03.788Z,976.19
2023-01-05T01:58:03.773Z,976.13
2023-01-05T01:59:03.711Z,976.24
2023-01-05T02:00:03.735Z,976.33
2023-01-05T02:01:03.911Z,975.98
2023-01-05T02:02:04.007Z,975.93
2023-01-05T02:03:03.558Z,976.21
2023-01-05T02:04:03.607Z,976.24
2023-01-05T02:05:03.449Z,976.01
2023-01-05T02:06:03.468Z,976.10
2023-01-05T02:07:03.434Z,976.18
2023-01-05T02:08:03.417Z,976.04
2023-01-05T02:09:03.571Z,975.96
2023-01-05T02:10:03.570Z,975.84
2023-01-05T02:11:03.493Z,976.10
2023-01-05T02:12:03.516Z,975.95
2023-01-05T02:13:03.491Z,976.18
2023-01-05T02:14:03.521Z,975.98
2023-01-05T02:15:03.442Z,976.27
2023-01-05T02:16:03.460Z,976.10
2023-01-05T02:17:03.558Z,976.15
2023-01-05T02:18:03.535Z,975.90
2023-01-05T02:19:03.605Z,975.95
2023-01-05T02:20:03.444Z,976.12
2023-01-05T02:21:04.514Z,976.26
2023-01-05T02:22:03.305Z,976.21
2023-01-05T02:23:03.212Z,976.26
2023-01-05T02:24:03.621Z,976.18
2023-01-05T02:25:03.122Z,976.29
2023-01-05T02:26:03.102Z,976.24
2023-01-05T02:27:03.122Z,976.15
2023-01-05T02:28:03.048Z,976.07
2023-01-05T02:29:02.986Z,976.12
2023-01-05T02:30:03.874Z,975.95
2023-01-05T02:31:03.839Z,976.24
2023-01-05T02:32:03.640Z,976.07
2023-01-05T02:33:03.688Z,976.07
2023-01-05T02:34:03.633Z,975.90
2023-01-05T02:35:03.735Z,976.12
2023-01-05T02:36:03.669Z,976.10
2023-01-05T02:37:03.752Z,976.10
2023-01-05T02:38:03.715Z,975.98
2023-01-05T02:39:03.660Z,976.10
2023-01-05T02:40:03.616Z,976.04
2023-01-05T02:41:03.541Z,975.98
2023-01-05T02:42:03.451Z,975.93
2023-01-05T02:43:03.341Z,975.87
2023-01-05T02:44:03.915Z,975.87
2023-01-05T02:45:03.356Z,975.79
2023-01-05T02:46:03.451Z,975.96
2023-01-05T02:47:03.146Z,975.90
2023-01-05T02:48:03.162Z,975.87
2023-01-05T02:49:03.023Z,976.02
2023-01-05T02:50:02.975Z,976.05
2023-01-05T02:51:02.927Z,975.93
2023-01-05T02:52:02.928Z,976.10
2023-01-05T02:53:02.933Z,976.05
2023-01-05T02:54:03.905Z,975.99
2023-01-05T02:55:03.806Z,976.02
2023-01-05T02:56:03.856Z,976.25
2023-01-05T02:57:03.894Z,976.08
2023-01-05T02:58:03.747Z,976.02
2023-01-05T02:59:03.719Z,975.97
2023-01-05T03:00:03.715Z,976.14
2023-01-05T03:01:03.941Z,975.97
2023-01-05T03:02:03.834Z,975.91
2023-01-05T03:03:03.829Z,975.94
2023-01-05T03:04:03.672Z,976.05
2023-01-05T03:05:03.702Z,975.88
2023-01-05T03:06:03.569Z,976.00
2023-01-05T03:07:03.686Z,976.02
2023-01-05T03:08:03.610Z,975.97
2023-01-05T03:09:03.594Z,975.85
2023-01-05T03:10:03.552Z,976.11
2023-01-05T03:11:03.498Z,975.97
2023-01-05T03:12:03.530Z,975.97
2023-01-05T03:13:03.510Z,976.11
2023-01-05T03:14:03.433Z,976.00
2023-01-05T03:15:03.292Z,976.00
2023-01-05T03:16:03.419Z,975.94
2023-01-05T03:17:03.288Z,975.97
2023-01-05T03:18:03.236Z,976.05
2023-01-05T03:19:03.315Z,975.88
2023-01-05T03:20:03.280Z,975.80
2023-01-05T03:21:03.187Z,975.74
2023-01-05T03:22:03.126Z,975.91
2023-01-05T03:23:03.034Z,975.97
2023-01-05T03:24:03.001Z,976.00
2023-01-05T03:25:03.013Z,975.97
2023-01-05T03:26:02.985Z,975.97
2023-01-05T03:27:03.863Z,976.06
2023-01-05T03:28:03.831Z,975.97
2023-01-05T03:29:03.884Z,976.00
2023-01-05T03:30:02.996Z,976.12
2023-01-05T03:31:04.012Z,976.12
2023-01-05T03:32:03.820Z,976.15
2023-01-05T03:33:03.714Z,976.09
2023-01-05T03:34:03.646Z,976.06
2023-01-05T03:35:03.783Z,976.20
2023-01-05T03:36:03.636Z,976.15
2023-01-05T03:37:03.619Z,976.29
2023-01-05T03:38:03.549Z,976.20
2023-01-05T03:39:03.500Z,976.15
2023-01-05T03:40:03.556Z,976.32
2023-01-05T03:41:03.538Z,976.37
2023-01-05T03:42:03.481Z,976.09
2023-01-05T03:43:03.508Z,976.18
2023-01-05T03:44:03.487Z,976.26
2023-01-05T03:45:03.446Z,976.23
2023-01-05T03:46:03.579Z,976.20
2023-01-05T03:47:03.350Z,976.29
2023-01-05T03:48:03.414Z,976.20
2023-01-05T03:49:03.382Z,976.29
2023-01-05T03:50:03.404Z,976.38
2023-01-05T03:51:03.423Z,976.35
2023-01-05T03:52:03.310Z,976.18
2023-01-05T03:53:03.262Z,976.18
2023-01-05T03:54:03.261Z,976.15
2023-01-05T03:55:03.146Z,976.15
2023-01-05T03:56:03.140Z,976.21
2023-01-05T03:57:03.106Z,976.23
2023-01-05T03:58:03.379Z,976.29
2023-01-05T03:59:03.340Z,976.32
2023-01-05T04:00:03.328Z,976.29
2023-01-05T04:01:03.497Z,976.23
2023-01-05T04:02:03.528Z,976.43
2023-01-05T04:03:03.439Z,976.43
2023-01-05T04:04:03.288Z,976.43
2023-01-05T04:05:02.996Z,976.23
2023-01-05T04:06:02.954Z,976.35
2023-01-05T04:07:02.975Z,976.35
2023-01-05T04:08:02.882Z,976.35
2023-01-05T04:09:02.891Z,976.41
2023-01-05T04:10:03.871Z,976.52
2023-01-05T04:11:02.883Z,976.49
2023-01-05T04:12:02.937Z,976.47
2023-01-05T04:13:03.855Z,976.49
2023-01-05T04:14:03.219Z,976.47
2023-01-05T04:15:03.090Z,976.46
2023-01-05T04:16:03.254Z,976.44
2023-01-05T04:17:03.073Z,976.38
2023-01-05T04:18:03.033Z,976.55
2023-01-05T04:19:03.016Z,976.52
2023-01-05T04:20:02.987Z,976.41
2023-01-05T04:21:02.948Z,976.44
2023-01-05T04:22:03.903Z,976.44
2023-01-05T04:23:03.893Z,976.50
2023-01-05T04:24:03.822Z,976.47
2023-01-05T04:25:03.779Z,976.50
2023-01-05T04:26:03.865Z,976.50
2023-01-05T04:27:03.783Z,976.55
2023-01-05T04:28:03.753Z,976.50
2023-01-05T04:29:03.605Z,976.53
2023-01-05T04:30:03.065Z,976.58
2023-01-05T04:31:03.202Z,976.44
2023-01-05T04:32:03.246Z,976.58
2023-01-05T04:33:03.161Z,976.58
2023-01-05T04:34:03.192Z,976.58
2023-01-05T04:35:11.737Z,976.41
2023-01-05T04:36:03.156Z,976.64
2023-01-05T04:37:03.121Z,976.58
2023-01-05T04:38:03.152Z,976.56
2023-01-05T04:39:03.004Z,976.67
2023-01-05T04:40:02.959Z,976.42
2023-01-05T04:41:03.807Z,976.56
2023-01-05T04:42:03.830Z,976.36
2023-01-05T04:43:03.856Z,976.44
2023-01-05T04:44:03.778Z,976.50
2023-01-05T04:45:03.731Z,976.53
2023-01-05T04:46:03.813Z,976.47
2023-01-05T04:47:03.633Z,976.53
2023-01-05T04:48:03.112Z,976.45
2023-01-05T04:49:03.113Z,976.50
2023-01-05T04:50:03.110Z,976.59
2023-01-05T04:51:02.997Z,976.42
2023-01-05T04:52:02.889Z,976.45
2023-01-05T04:53:03.830Z,976.56
2023-01-05T04:54:03.921Z,976.39
2023-01-05T04:55:03.776Z,976.33
2023-01-05T04:56:03.906Z,976.45
2023-01-05T04:57:03.751Z,976.42
2023-01-05T04:58:12.098Z,976.53
2023-01-05T04:59:03.756Z,976.31
2023-01-05T05:00:03.719Z,976.42
2023-01-05T05:01:03.864Z,976.48
2023-01-05T05:02:03.965Z,976.42
2023-01-05T05:03:03.675Z,976.48
2023-01-05T05:04:03.499Z,976.65
2023-01-05T05:05:03.496Z,976.48
2023-01-05T05:06:03.427Z,976.37
2023-01-05T05:07:03.399Z,976.48
2023-01-05T05:08:03.382Z,976.57
2023-01-05T05:09:03.274Z,976.57
2023-01-05T05:10:03.217Z,976.51
2023-01-05T05:11:03.081Z,976.42
2023-01-05T05:12:03.118Z,976.39
2023-01-05T05:13:03.048Z,976.51
2023-01-05T05:14:02.938Z,976.45
2023-01-05T05:15:03.868Z,976.54
2023-01-05T05:16:03.921Z,976.57
2023-01-05T05:17:03.872Z,976.37
2023-01-05T05:18:09.956Z,976.42
2023-01-05T05:19:03.705Z,976.43
2023-01-05T05:20:03.683Z,976.54
2023-01-05T05:21:03.525Z,976.46
2023-01-05T05:22:03.404Z,976.54
2023-01-05T05:23:03.355Z,976.52
2023-01-05T05:24:03.310Z,976.49
2023-01-05T05:25:03.520Z,976.60
2023-01-05T05:26:03.329Z,976.55
2023-01-05T05:27:03.351Z,976.55
2023-01-05T05:28:03.305Z,976.60
2023-01-05T05:29:03.231Z,976.55
2023-01-05T05:30:03.150Z,976.66
2023-01-05T05:31:03.244Z,976.44
2023-01-05T05:32:03.105Z,976.41
2023-01-05T05:33:03.111Z,976.41
2023-01-05T05:34:03.141Z,976.38
2023-01-05T05:35:03.054Z,976.64
2023-01-05T05:36:03.159Z,976.41
2023-01-05T05:37:03.047Z,976.47
2023-01-05T05:38:03.198Z,976.39
2023-01-05T05:39:03.241Z,976.53
2023-01-05T05:40:03.400Z,976.36
2023-01-05T05:41:03.297Z,976.48
2023-01-05T05:42:03.284Z,976.56
2023-01-05T05:43:03.254Z,976.39
2023-01-05T05:44:03.913Z,976.45
2023-01-05T05:45:03.565Z,976.51
2023-01-05T05:46:03.523Z,976.45
2023-01-05T05:47:03.580Z,976.68
2023-01-05T05:48:03.371Z,976.68
2023-01-05T05:49:03.347Z,976.60
2023-01-05T05:50:03.880Z,976.49
2023-01-05T05:51:03.358Z,976.60
2023-01-05T05:52:03.348Z,976.32
2023-01-05T05:53:03.230Z,976.35
2023-01-05T05:54:03.232Z,976.29
2023-01-05T05:55:03.155Z,976.29
2023-01-05T05:56:03.990Z,976.35
2023-01-05T05:57:03.960Z,976.43
2023-01-05T05:58:03.837Z,976.41
2023-01-05T05:59:03.778Z,976.32
2023-01-05T06:00:02.943Z,976.46
2023-01-05T06:01:03.004Z,976.44
2023-01-05T06:02:03.376Z,976.52
2023-01-05T06:03:03.312Z,976.55
2023-01-05T06:04:02.945Z,976.58
2023-01-05T06:05:03.862Z,976.55
2023-01-05T06:06:03.994Z,976.55
2023-01-05T06:07:03.754Z,976.53
2023-01-05T06:08:05.964Z,976.58
2023-01-05T06:09:03.909Z,976.58
2023-01-05T06:10:03.804Z,976.53
2023-01-05T06:11:03.724Z,976.64
2023-01-05T06:12:03.764Z,976.61
2023-01-05T06:13:03.613Z,976.61
2023-01-05T06:14:03.654Z,976.61
2023-01-05T06:15:03.494Z,976.61
2023-01-05T06:16:03.655Z,976.67
2023-01-05T06:17:03.570Z,976.73
2023-01-05T06:18:03.481Z,976.70
2023-01-05T06:19:03.424Z,976.62
2023-01-05T06:20:03.427Z,976.75
2023-01-05T06:21:03.433Z,976.64
2023-01-05T06:22:03.414Z,976.81
2023-01-05T06:23:03.330Z,976.75
2023-01-05T06:24:03.362Z,976.67
2023-01-05T06:25:03.350Z,976.73
2023-01-05T06:26:03.277Z,976.59
2023-01-05T06:27:03.223Z,976.68
2023-01-05T06:28:03.273Z,976.59
2023-01-05T06:29:03.220Z,976.73
2023-01-05T06:30:03.257Z,976.70
2023-01-05T06:31:03.172Z,976.59
2023-01-05T06:32:03.200Z,976.71
2023-01-05T06:33:03.011Z,976.78
2023-01-05T06:34:02.981Z,976.81
2023-01-05T06:35:02.944Z,976.78
2023-01-05T06:36:02.892Z,976.75
2023-01-05T06:37:03.143Z,976.84
2023-01-05T06:38:03.853Z,976.87
2023-01-05T06:39:03.043Z,976.84
2023-01-05T06:40:03.020Z,976.78
2023-01-05T06:41:02.931Z,976.78
2023-01-05T06:42:03.808Z,976.90
2023-01-05T06:43:03.736Z,976.84
2023-01-05T06:44:04.109Z,977.09
2023-01-05T06:45:03.712Z,976.98
2023-01-05T06:46:03.812Z,976.98
2023-01-05T06:47:03.551Z,977.01
2023-01-05T06:48:03.575Z,977.04
2023-01-05T06:49:03.457Z,976.98
2023-01-05T06:50:03.485Z,977.18
2023-01-05T06:51:03.392Z,977.07
2023-01-05T06:52:03.553Z,977.12
2023-01-05T06:53:03.409Z,977.18
2023-01-05T06:54:03.743Z,977.12
2023-01-05T06:55:03.608Z,977.21
2023-01-05T06:56:03.783Z,977.12
2023-01-05T06:57:03.816Z,977.24
2023-01-05T06:58:04.217Z,977.29
2023-01-05T06:59:03.138Z,977.21
2023-01-05T07:00:03.164Z,977.35
2023-01-05T07:01:03.420Z,977.41
2023-01-05T07:02:03.127Z,977.29
2023-01-05T07:03:02.933Z,977.41
2023-01-05T07:04:03.007Z,977.41
2023-01-05T07:05:03.947Z,977.41
2023-01-05T07:06:03.776Z,977.30
2023-01-05T07:07:03.779Z,977.47
2023-01-05T07:08:03.632Z,977.44
2023-01-05T07:09:03.734Z,977.44
2023-01-05T07:10:03.742Z,977.55
2023-01-05T07:11:03.683Z,977.58
2023-01-05T07:12:03.802Z,977.55
2023-01-05T07:13:03.668Z,977.55
2023-01-05T07:14:04.043Z,977.55
2023-01-05T07:15:03.602Z,977.66
2023-01-05T07:16:03.608Z,977.66
2023-01-05T07:17:03.572Z,977.69
2023-01-05T07:18:03.488Z,977.58
2023-01-05T07:19:03.385Z,977.66
2023-01-05T07:20:03.403Z,977.77
2023-01-05T07:21:03.355Z,977.77
2023-01-05T07:22:03.384Z,977.77
2023-01-05T07:23:03.385Z,977.71
2023-01-05T07:24:03.408Z,977.68
2023-01-05T07:25:03.353Z,977.74
2023-01-05T07:26:03.287Z,977.85
2023-01-05T07:27:10.147Z,977.80
2023-01-05T07:28:03.345Z,977.74
2023-01-05T07:29:03.232Z,977.91
2023-01-05T07:30:03.341Z,977.82
2023-01-05T07:31:03.396Z,977.91
2023-01-05T07:32:03.469Z,977.91
2023-01-05T07:33:03.384Z,977.94
2023-01-05T07:34:03.269Z,978.11
2023-01-05T07:35:03.182Z,977.80
2023-01-05T07:36:03.187Z,977.85
2023-01-05T07:37:03.177Z,977.97
2023-01-05T07:38:03.139Z,977.85
2023-01-05T07:39:03.000Z,977.88
2023-01-05T07:40:03.049Z,977.88
2023-01-05T07:41:03.129Z,977.88
2023-01-05T07:42:03.010Z,978.05
2023-01-05T07:43:03.525Z,977.96
2023-01-05T07:44:03.412Z,977.99
2023-01-05T07:45:03.373Z,977.93
2023-01-05T07:46:03.603Z,977.91
2023-01-05T07:47:03.452Z,977.79
2023-01-05T07:48:03.282Z,977.96
2023-01-05T07:49:03.211Z,977.88
2023-01-05T07:50:03.223Z,977.85
2023-01-05T07:51:03.148Z,977.85
2023-01-05T07:52:03.113Z,977.93
2023-01-05T07:53:03.064Z,977.99
2023-01-05T07:54:02.945Z,977.96
2023-01-05T07:55:03.863Z,978.08
2023-01-05T07:56:02.927Z,978.22
2023-01-05T07:57:02.869Z,978.02
2023-01-05T07:58:03.901Z,977.99
2023-01-05T07:59:03.841Z,978.10
2023-01-05T08:00:03.780Z,978.05
2023-01-05T08:01:03.936Z,978.07
2023-01-05T08:02:04.036Z,978.10
2023-01-05T08:03:03.784Z,978.25
2023-01-05T08:04:03.751Z,978.13
2023-01-05T08:05:03.585Z,978.27
2023-01-05T08:06:03.553Z,978.22
2023-01-05T08:07:03.567Z,978.13
2023-01-05T08:08:03.521Z,978.16
2023-01-05T08:09:03.479Z,978.24
2023-01-05T08:10:03.369Z,978.41
2023-01-05T08:11:03.452Z,978.36
2023-01-05T08:12:03.359Z,978.27
2023-01-05T08:13:03.381Z,978.39
2023-01-05T08:14:03.526Z,978.33
2023-01-05T08:15:03.217Z,978.46
2023-01-05T08:16:03.405Z,978.42
2023-01-05T08:17:03.318Z,978.36
2023-01-05T08:18:03.213Z,978.44
2023-01-05T08:19:10.973Z,978.44
2023-01-05T08:20:03.019Z,978.39
2023-01-05T08:21:03.037Z,978.44
2023-01-05T08:22:03.025Z,978.55
2023-01-05T08:23:02.963Z,978.52
2023-01-05T08:24:02.994Z,978.49
2023-01-05T08:25:02.994Z,978.44
2023-01-05T08:26:03.908Z,978.25
2023-01-05T08:27:03.896Z,978.42
2023-01-05T08:28:03.687Z,978.27
2023-01-05T08:29:03.686Z,978.49
2023-01-05T08:30:03.589Z,978.30
2023-01-05T08:31:03.590Z,978.46
2023-01-05T08:32:08.550Z,978.44
2023-01-05T08:33:03.431Z,978.44
2023-01-05T08:34:03.418Z,978.54
2023-01-05T08:35:03.286Z,978.49
2023-01-05T08:36:03.196Z,978.52
2023-01-05T08:37:03.175Z,978.38
2023-01-05T08:38:03.046Z,978.38
2023-01-05T08:39:03.121Z,978.46
2023-01-05T08:40:03.024Z,978.60
2023-01-05T08:41:03.035Z,978.51
2023-01-05T08:42:03.504Z,978.51
2023-01-05T08:43:03.930Z,978.44
2023-01-05T08:44:03.892Z,978.65
2023-01-05T08:45:03.774Z,978.57
2023-01-05T08:46:03.703Z,978.65
2023-01-05T08:47:03.634Z,978.48
2023-01-05T08:48:03.554Z,978.51
2023-01-05T08:49:03.524Z,978.59
2023-01-05T08:50:03.493Z,978.65
2023-01-05T08:51:03.675Z,978.68
2023-01-05T08:52:03.470Z,978.68
2023-01-05T08:53:03.515Z,978.88
2023-01-05T08:54:03.487Z,978.73
2023-01-05T08:55:03.420Z,978.65
2023-01-05T08:56:03.346Z,978.76
2023-01-05T08:57:03.318Z,978.71
2023-01-05T08:58:03.299Z,978.79
2023-01-05T08:59:03.249Z,978.93
2023-01-05T09:00:03.317Z,978.82
2023-01-05T09:01:03.528Z,978.96
2023-01-05T09:02:03.820Z,979.04
2023-01-05T09:03:03.525Z,978.90
2023-01-05T09:04:03.196Z,978.96
2023-01-05T09:05:03.151Z,978.85
2023-01-05T09:06:03.071Z,978.93
2023-01-05T09:07:02.975Z,978.93
2023-01-05T09:08:02.958Z,978.93
2023-01-05T09:09:03.871Z,978.96
2023-01-05T09:10:02.926Z,978.96
2023-01-05T09:11:03.902Z,978.84
2023-01-05T09:12:03.783Z,979.01
2023-01-05T09:13:03.814Z,979.01
2023-01-05T09:14:03.772Z,979.15
2023-01-05T09:15:03.701Z,978.95
2023-01-05T09:16:03.671Z,978.95
2023-01-05T09:17:08.889Z,978.84
2023-01-05T09:18:03.706Z,979.10
2023-01-05T09:19:03.540Z,979.04
2023-01-05T09:20:03.446Z,979.09
2023-01-05T09:21:03.352Z,978.95
2023-01-05T09:22:03.435Z,979.18
2023-01-05T09:23:03.377Z,979.12
2023-01-05T09:24:03.270Z,979.23
2023-01-05T09:25:03.185Z,979.12
2023-01-05T09:26:03.292Z,979.15
2023-01-05T09:27:03.224Z,979.29
2023-01-05T09:28:03.074Z,979.18
2023-01-05T09:29:03.166Z,979.32
2023-01-05T09:30:03.214Z,979.15
2023-01-05T09:31:03.099Z,979.18
2023-01-05T09:32:02.972Z,979.26
2023-01-05T09:33:03.897Z,979.35
2023-01-05T09:34:03.875Z,979.26
2023-01-05T09:35:03.804Z,979.32
2023-01-05T09:36:03.715Z,979.34
2023-01-05T09:37:03.692Z,979.46
2023-01-05T09:38:03.689Z,979.57
2023-01-05T09:39:03.563Z,979.51
2023-01-05T09:40:03.600Z,979.31
2023-01-05T09:41:03.543Z,979.31
2023-01-05T09:42:03.633Z,979.34
2023-01-05T09:43:03.481Z,979.60
2023-01-05T09:44:03.412Z,979.51
2023-01-05T09:45:03.369Z,979.54
2023-01-05T09:46:03.304Z,979.51
2023-01-05T09:47:03.343Z,979.48
2023-01-05T09:48:03.145Z,979.48
2023-01-05T09:49:03.061Z,979.45
2023-01-05T09:50:03.030Z,979.42
2023-01-05T09:51:03.022Z,979.45
2023-01-05T09:52:02.953Z,979.48
2023-01-05T09:53:04.019Z,979.45
2023-01-05T09:54:03.088Z,979.42
2023-01-05T09:55:03.023Z,979.51
2023-01-05T09:56:02.941Z,979.34
2023-01-05T09:57:11.334Z,979.45
2023-01-05T09:58:03.845Z,979.45
2023-01-05T09:59:03.899Z,979.28
2023-01-05T10:00:03.719Z,979.39
2023-01-05T10:01:03.865Z,979.39
2023-01-05T10:02:03.634Z,979.45
2023-01-05T10:03:03.742Z,979.34
2023-01-05T10:04:05.448Z,979.36
2023-01-05T10:05:03.937Z,979.45
2023-01-05T10:06:03.715Z,979.51
2023-01-05T10:07:03.749Z,979.39
2023-01-05T10:08:03.615Z,979.45
2023-01-05T10:09:03.520Z,979.45
2023-01-05T10:10:03.483Z,979.47
2023-01-05T10:11:03.508Z,979.45
2023-01-05T10:12:03.524Z,979.33
2023-01-05T10:13:03.829Z,979.53
2023-01-05T10:14:03.561Z,979.42
2023-01-05T10:15:03.406Z,979.53
2023-01-05T10:16:03.348Z,979.56
2023-01-05T10:17:42.080Z,979.42
2023-01-05T10:18:03.511Z,979.67
2023-01-05T10:19:03.385Z,979.50
2023-01-05T10:20:03.363Z,979.53
2023-01-05T10:21:03.325Z,979.61
2023-01-05T10:22:03.351Z,979.61
2023-01-05T10:23:03.279Z,979.67
2023-01-05T10:24:03.249Z,979.38
2023-01-05T10:25:03.217Z,979.44
2023-01-05T10:26:03.191Z,979.32
2023-01-05T10:27:26.970Z,979.52
2023-01-05T10:28:03.186Z,979.63
2023-01-05T10:29:03.148Z,979.58
2023-01-05T10:30:03.105Z,979.55
2023-01-05T10:31:03.173Z,979.60
2023-01-05T10:32:03.055Z,979.69
2023-01-05T10:33:35.594Z,979.52
2023-01-05T10:34:08.986Z,979.57
2023-01-05T10:35:03.117Z,979.63
2023-01-05T10:36:12.210Z,979.55
2023-01-05T10:37:10.403Z,979.66
2023-01-05T10:38:03.011Z,979.55
2023-01-05T10:39:03.066Z,979.63
2023-01-05T10:40:03.154Z,979.57
2023-01-05T10:41:03.102Z,979.63
2023-01-05T10:42:03.119Z,979.69
2023-01-05T10:43:02.972Z,979.83
2023-01-05T10:44:03.869Z,979.66
2023-01-05T10:45:03.832Z,979.72
2023-01-05T10:46:40.164Z,979.87
2023-01-05T10:47:03.570Z,979.69
2023-01-05T10:48:03.408Z,979.90
2023-01-05T10:49:03.323Z,979.93
2023-01-05T10:50:03.353Z,979.93
2023-01-05T10:51:03.292Z,979.83
2023-01-05T10:52:03.336Z,979.71
2023-01-05T10:53:03.238Z,979.96
2023-01-05T10:54:03.330Z,979.80
2023-01-05T10:55:03.166Z,979.86
2023-01-05T10:56:03.069Z,979.72
2023-01-05T10:57:03.092Z,979.80
2023-01-05T10:58:03.266Z,979.88
2023-01-05T10:59:03.113Z,979.74
2023-01-05T11:00:03.314Z,979.88
2023-01-05T11:01:03.420Z,979.86
2023-01-05T11:02:03.336Z,979.90
2023-01-05T11:03:03.063Z,979.80
2023-01-05T11:04:34.800Z,980.02
2023-01-05T11:05:03.910Z,980.05
2023-01-05T11:06:03.792Z,979.99
2023-01-05T11:07:03.681Z,979.88
2023-01-05T11:08:03.694Z,979.83
2023-01-05T11:09:03.602Z,979.80
2023-01-05T11:10:03.635Z,979.91
2023-01-05T11:11:03.523Z,979.83
2023-01-05T11:12:03.443Z,979.93
2023-01-05T11:13:03.504Z,979.93
2023-01-05T11:14:03.445Z,979.91
2023-01-05T11:15:03.260Z,979.99
2023-01-05T11:16:03.342Z,979.83
2023-01-05T11:17:03.417Z,979.91
2023-01-05T11:18:03.490Z,979.99
2023-01-05T11:19:03.416Z,979.83
2023-01-05T11:20:03.323Z,979.88
2023-01-05T11:21:03.282Z,980.05
2023-01-05T11:22:03.390Z,979.96
2023-01-05T11:23:03.225Z,979.88
2023-01-05T11:24:03.165Z,979.99
2023-01-05T11:25:03.039Z,979.93
2023-01-05T11:26:02.984Z,979.85
2023-01-05T11:27:03.043Z,980.07
2023-01-05T11:28:05.707Z,980.18
2023-01-05T11:29:03.910Z,979.82
2023-01-05T11:30:03.767Z,979.90
2023-01-05T11:31:03.847Z,980.09
2023-01-05T11:32:03.670Z,980.09
2023-01-05T11:33:03.621Z,980.06
2023-01-05T11:34:08.605Z,980.01
2023-01-05T11:35:03.466Z,979.98
2023-01-05T11:36:03.379Z,980.01
2023-01-05T11:37:08.844Z,980.03
2023-01-05T11:38:03.276Z,980.09
2023-01-05T11:39:03.200Z,979.95
2023-01-05T11:40:03.206Z,979.95
2023-01-05T11:41:03.256Z,980.06
2023-01-05T11:42:03.139Z,980.00
2023-01-05T11:43:03.096Z,980.00
2023-01-05T11:44:03.055Z,980.12
2023-01-05T11:45:03.933Z,980.22
2023-01-05T11:46:04.030Z,980.12
2023-01-05T11:47:03.838Z,980.18
2023-01-05T11:48:03.739Z,980.18
2023-01-05T11:49:03.735Z,980.15
2023-01-05T11:50:09.919Z,980.31
2023-01-05T11:51:03.764Z,980.23
2023-01-05T11:52:03.791Z,980.26
2023-01-05T11:53:03.676Z,980.26
2023-01-05T11:54:03.676Z,980.15
2023-01-05T11:55:03.743Z,980.07
2023-01-05T11:56:03.830Z,980.29
2023-01-05T11:57:03.710Z,980.16
2023-01-05T11:58:03.708Z,980.04
2023-01-05T11:59:03.735Z,980.13
2023-01-05T12:00:03.818Z,980.32
2023-01-05T12:01:03.953Z,980.23
2023-01-05T12:02:03.065Z,980.21
2023-01-05T12:03:03.543Z,980.29
2023-01-05T12:04:03.125Z,980.26
2023-01-05T12:05:03.018Z,980.23
2023-01-05T12:06:03.420Z,980.21
2023-01-05T12:07:03.449Z,980.13
2023-01-05T12:08:03.417Z,980.24
2023-01-05T12:09:03.550Z,980.35
2023-01-05T12:10:03.370Z,980.32
2023-01-05T12:11:03.455Z,980.24
2023-01-05T12:12:03.436Z,980.32
2023-01-05T12:13:03.455Z,980.27
2023-01-05T12:14:03.459Z,980.24
2023-01-05T12:15:03.429Z,980.35
2023-01-05T12:16:03.577Z,980.35
2023-01-05T12:17:03.685Z,980.24
2023-01-05T12:18:03.460Z,980.13
2023-01-05T12:19:03.479Z,980.38
2023-01-05T12:20:03.538Z,980.35
2023-01-05T12:21:03.392Z,980.08
2023-01-05T12:22:03.486Z,980.24
2023-01-05T12:23:03.366Z,980.16
2023-01-05T12:24:03.481Z,980.05
2023-01-05T12:25:03.433Z,979.93
2023-01-05T12:26:03.422Z,980.08
2023-01-05T12:27:03.311Z,980.05
2023-01-05T12:28:05.823Z,980.02